sensor_id;sensor_type;location;lat;lon;timestamp;temperature;humidity
26479;DHT22;14163;-26.142;27.992;2023-09-30T14:01:13;30.30;43.80
26479;DHT22;14163;-26.142;27.992;2023-09-30T14:03:43;30.40;43.90
26479;DHT22;14163;-26.142;27.992;2023-09-30T14:06:14;31.00;43.30
26479;DHT22;14163;-26.142;27.992;2023-09-30T14:08:43;31.60;42.30
26479;DHT22;14163;-26.142;27.992;2023-09-30T14:11:12;32.10;42.10
26479;DHT22;14163;-26.142;27.992;2023-09-30T14:13:41;32.50;41.30
26479;DHT22;14163;-26.142;27.992;2023-09-30T14:16:12;32.70;41.30
26479;DHT22;14163;-26.142;27.992;2023-09-30T14:18:42;32.90;40.80
26479;DHT22;14163;-26.142;27.992;2023-09-30T14:21:12;32.90;40.30
26479;DHT22;14163;-26.142;27.992;2023-09-30T14:23:41;32.90;40.40
26479;DHT22;14163;-26.142;27.992;2023-09-30T14:26:10;32.90;40.20
26479;DHT22;14163;-26.142;27.992;2023-09-30T14:28:39;32.80;39.70
26479;DHT22;14163;-26.142;27.992;2023-09-30T14:31:08;32.90;39.60
26479;DHT22;14163;-26.142;27.992;2023-09-30T14:33:39;33.00;39.60
26479;DHT22;14163;-26.142;27.992;2023-09-30T14:36:08;33.00;39.80
26479;DHT22;14163;-26.142;27.992;2023-09-30T14:38:37;33.00;39.40
26479;DHT22;14163;-26.142;27.992;2023-09-30T14:41:09;32.90;40.10
26479;DHT22;14163;-26.142;27.992;2023-09-30T14:43:39;32.90;39.00
26479;DHT22;14163;-26.142;27.992;2023-09-30T14:46:08;32.80;38.90
26479;DHT22;14163;-26.142;27.992;2023-09-30T14:48:39;32.70;39.30
26479;DHT22;14163;-26.142;27.992;2023-09-30T14:51:09;32.60;39.50
26479;DHT22;14163;-26.142;27.992;2023-09-30T14:53:38;32.70;39.30
26479;DHT22;14163;-26.142;27.992;2023-09-30T14:56:15;32.70;38.90
26479;DHT22;14163;-26.142;27.992;2023-09-30T14:58:45;32.80;39.50
26479;DHT22;14163;-26.142;27.992;2023-09-30T15:01:14;32.70;38.30
26479;DHT22;14163;-26.142;27.992;2023-09-30T15:03:45;32.70;37.40
26479;DHT22;14163;-26.142;27.992;2023-09-30T15:06:15;32.80;38.00
26479;DHT22;14163;-26.142;27.992;2023-09-30T15:08:44;32.70;37.40
26479;DHT22;14163;-26.142;27.992;2023-09-30T15:11:14;32.70;37.70
26479;DHT22;14163;-26.142;27.992;2023-09-30T15:13:43;32.70;38.40
26479;DHT22;14163;-26.142;27.992;2023-09-30T15:16:16;32.70;37.60
26479;DHT22;14163;-26.142;27.992;2023-09-30T15:18:47;32.70;37.20
26479;DHT22;14163;-26.142;27.992;2023-09-30T15:21:17;32.80;36.30
26479;DHT22;14163;-26.142;27.992;2023-09-30T15:23:46;32.80;36.60
26479;DHT22;14163;-26.142;27.992;2023-09-30T15:26:15;32.80;36.60
26479;DHT22;14163;-26.142;27.992;2023-09-30T15:28:44;32.70;36.40
26479;DHT22;14163;-26.142;27.992;2023-09-30T15:31:14;32.70;36.30
26479;DHT22;14163;-26.142;27.992;2023-09-30T15:33:43;32.40;36.50
26479;DHT22;14163;-26.142;27.992;2023-09-30T15:36:15;32.40;36.60
26479;DHT22;14163;-26.142;27.992;2023-09-30T15:38:46;32.40;36.20
26479;DHT22;14163;-26.142;27.992;2023-09-30T15:41:16;32.30;36.70
26479;DHT22;14163;-26.142;27.992;2023-09-30T15:43:48;32.20;37.20
26479;DHT22;14163;-26.142;27.992;2023-09-30T15:46:17;32.20;37.60
26479;DHT22;14163;-26.142;27.992;2023-09-30T15:48:46;32.30;37.00
26479;DHT22;14163;-26.142;27.992;2023-09-30T15:51:17;32.20;37.20
26479;DHT22;14163;-26.142;27.992;2023-09-30T15:53:46;32.10;37.10
26479;DHT22;14163;-26.142;27.992;2023-09-30T15:56:16;32.10;37.40
26479;DHT22;14163;-26.142;27.992;2023-09-30T15:58:45;32.00;37.40
26479;DHT22;14163;-26.142;27.992;2023-09-30T16:01:14;32.00;37.40
26479;DHT22;14163;-26.142;27.992;2023-09-30T16:03:43;32.00;37.80
26479;DHT22;14163;-26.142;27.992;2023-09-30T16:06:12;32.10;37.50
26479;DHT22;14163;-26.142;27.992;2023-09-30T16:08:44;32.00;39.50
26479;DHT22;14163;-26.142;27.992;2023-09-30T16:11:13;32.00;39.70
26479;DHT22;14163;-26.142;27.992;2023-09-30T16:13:43;31.90;38.90
26479;DHT22;14163;-26.142;27.992;2023-09-30T16:16:12;31.90;39.30
26479;DHT22;14163;-26.142;27.992;2023-09-30T16:18:42;31.80;39.50
26479;DHT22;14163;-26.142;27.992;2023-09-30T16:21:11;31.70;39.90
26479;DHT22;14163;-26.142;27.992;2023-09-30T16:23:40;31.70;39.10
26479;DHT22;14163;-26.142;27.992;2023-09-30T16:26:13;31.70;38.40
26479;DHT22;14163;-26.142;27.992;2023-09-30T16:28:42;31.60;40.20
26479;DHT22;14163;-26.142;27.992;2023-09-30T16:31:12;31.60;39.00
26479;DHT22;14163;-26.142;27.992;2023-09-30T16:33:41;31.60;39.20
26479;DHT22;14163;-26.142;27.992;2023-09-30T16:36:10;31.50;38.80
26479;DHT22;14163;-26.142;27.992;2023-09-30T16:38:39;31.50;39.60
26479;DHT22;14163;-26.142;27.992;2023-09-30T16:41:10;31.40;38.70
26479;DHT22;14163;-26.142;27.992;2023-09-30T16:43:39;31.30;38.70
26479;DHT22;14163;-26.142;27.992;2023-09-30T16:46:08;31.30;39.20
26479;DHT22;14163;-26.142;27.992;2023-09-30T16:48:37;31.30;38.70
26479;DHT22;14163;-26.142;27.992;2023-09-30T16:51:09;31.30;38.40
26479;DHT22;14163;-26.142;27.992;2023-09-30T16:53:38;31.20;38.20
26479;DHT22;14163;-26.142;27.992;2023-09-30T16:56:09;31.20;38.10
26479;DHT22;14163;-26.142;27.992;2023-09-30T16:58:40;31.20;38.10
26479;DHT22;14163;-26.142;27.992;2023-09-30T17:01:12;31.00;38.10
26479;DHT22;14163;-26.142;27.992;2023-09-30T17:03:42;31.00;38.40
26479;DHT22;14163;-26.142;27.992;2023-09-30T17:06:11;31.00;38.40
26479;DHT22;14163;-26.142;27.992;2023-09-30T17:08:40;30.90;38.40
26479;DHT22;14163;-26.142;27.992;2023-09-30T17:11:11;30.90;38.20
26479;DHT22;14163;-26.142;27.992;2023-09-30T17:13:40;30.90;38.30
26479;DHT22;14163;-26.142;27.992;2023-09-30T17:16:09;30.70;38.30
26479;DHT22;14163;-26.142;27.992;2023-09-30T17:18:38;30.70;38.40
26479;DHT22;14163;-26.142;27.992;2023-09-30T17:21:07;31.60;38.90
26479;DHT22;14163;-26.142;27.992;2023-09-30T17:23:36;30.60;38.50
26479;DHT22;14163;-26.142;27.992;2023-09-30T17:26:05;30.50;38.60
26479;DHT22;14163;-26.142;27.992;2023-09-30T17:28:37;30.50;38.40
26479;DHT22;14163;-26.142;27.992;2023-09-30T17:31:06;30.50;38.60
26479;DHT22;14163;-26.142;27.992;2023-09-30T17:33:37;30.50;38.50
26479;DHT22;14163;-26.142;27.992;2023-09-30T17:36:08;30.40;38.70
26479;DHT22;14163;-26.142;27.992;2023-09-30T17:38:37;30.40;38.70
26479;DHT22;14163;-26.142;27.992;2023-09-30T17:41:06;30.20;38.80
26479;DHT22;14163;-26.142;27.992;2023-09-30T17:43:37;30.20;38.80
26479;DHT22;14163;-26.142;27.992;2023-09-30T17:46:10;30.20;38.90
26479;DHT22;14163;-26.142;27.992;2023-09-30T17:48:39;30.20;38.80
26479;DHT22;14163;-26.142;27.992;2023-09-30T17:51:12;30.20;38.90
26479;DHT22;14163;-26.142;27.992;2023-09-30T17:53:46;30.00;38.90
26479;DHT22;14163;-26.142;27.992;2023-09-30T17:56:16;29.90;39.00
26479;DHT22;14163;-26.142;27.992;2023-09-30T17:58:55;29.80;39.00
26479;DHT22;14163;-26.142;27.992;2023-09-30T18:01:26;29.90;39.20
26479;DHT22;14163;-26.142;27.992;2023-09-30T18:03:56;29.60;38.60
26479;DHT22;14163;-26.142;27.992;2023-09-30T18:06:25;29.90;39.00
26479;DHT22;14163;-26.142;27.992;2023-09-30T18:08:54;29.80;39.50
26479;DHT22;14163;-26.142;27.992;2023-09-30T18:11:24;29.80;38.80
26479;DHT22;14163;-26.142;27.992;2023-09-30T18:13:55;29.90;38.70
26479;DHT22;14163;-26.142;27.992;2023-09-30T18:16:24;29.90;38.50
26479;DHT22;14163;-26.142;27.992;2023-09-30T18:18:53;29.80;38.60
26479;DHT22;14163;-26.142;27.992;2023-09-30T18:21:23;29.80;38.60
26479;DHT22;14163;-26.142;27.992;2023-09-30T18:23:57;29.80;38.70
26479;DHT22;14163;-26.142;27.992;2023-09-30T18:26:29;29.80;38.80
26479;DHT22;14163;-26.142;27.992;2023-09-30T18:29:01;29.70;38.60
26479;DHT22;14163;-26.142;27.992;2023-09-30T18:31:37;29.60;38.50
26479;DHT22;14163;-26.142;27.992;2023-09-30T18:34:12;29.50;38.90
26479;DHT22;14163;-26.142;27.992;2023-09-30T18:36:53;29.50;38.90
26479;DHT22;14163;-26.142;27.992;2023-09-30T18:39:22;29.60;38.80
26479;DHT22;14163;-26.142;27.992;2023-09-30T18:41:54;29.60;38.70
26479;DHT22;14163;-26.142;27.992;2023-09-30T18:44:31;29.60;39.00
26479;DHT22;14163;-26.142;27.992;2023-09-30T18:47:00;29.60;39.20
26479;DHT22;14163;-26.142;27.992;2023-09-30T18:49:34;29.60;38.90
26479;DHT22;14163;-26.142;27.992;2023-09-30T18:52:03;29.60;38.80
26479;DHT22;14163;-26.142;27.992;2023-09-30T18:54:40;29.60;39.00
26479;DHT22;14163;-26.142;27.992;2023-09-30T18:57:15;29.50;39.10
26479;DHT22;14163;-26.142;27.992;2023-09-30T18:59:45;29.50;39.00
26479;DHT22;14163;-26.142;27.992;2023-09-30T19:02:14;29.50;39.10
26479;DHT22;14163;-26.142;27.992;2023-09-30T19:04:44;29.50;39.00
26479;DHT22;14163;-26.142;27.992;2023-09-30T19:07:16;29.50;38.90
26479;DHT22;14163;-26.142;27.992;2023-09-30T19:09:52;29.40;38.90
26479;DHT22;14163;-26.142;27.992;2023-09-30T19:12:30;29.30;39.10
26479;DHT22;14163;-26.142;27.992;2023-09-30T19:15:04;29.20;38.90
26479;DHT22;14163;-26.142;27.992;2023-09-30T19:17:39;29.20;38.70
26479;DHT22;14163;-26.142;27.992;2023-09-30T19:20:15;29.20;38.80
26479;DHT22;14163;-26.142;27.992;2023-09-30T19:22:51;29.20;38.80
26479;DHT22;14163;-26.142;27.992;2023-09-30T19:25:39;29.20;38.60
26479;DHT22;14163;-26.142;27.992;2023-09-30T19:28:10;29.30;38.40
26479;DHT22;14163;-26.142;27.992;2023-09-30T19:30:43;29.20;38.40
26479;DHT22;14163;-26.142;27.992;2023-09-30T19:33:13;29.20;38.30
26479;DHT22;14163;-26.142;27.992;2023-09-30T19:35:42;29.10;37.70
26479;DHT22;14163;-26.142;27.992;2023-09-30T19:38:11;29.10;37.70
26479;DHT22;14163;-26.142;27.992;2023-09-30T19:40:40;28.90;37.50
26479;DHT22;14163;-26.142;27.992;2023-09-30T19:43:09;28.80;37.40
26479;DHT22;14163;-26.142;27.992;2023-09-30T19:45:40;28.70;37.20
26479;DHT22;14163;-26.142;27.992;2023-09-30T19:48:09;28.60;36.50
26479;DHT22;14163;-26.142;27.992;2023-09-30T19:50:39;28.50;36.40
26479;DHT22;14163;-26.142;27.992;2023-09-30T19:53:08;28.50;36.60
26479;DHT22;14163;-26.142;27.992;2023-09-30T19:55:37;28.50;35.80
26479;DHT22;14163;-26.142;27.992;2023-09-30T19:58:06;28.80;36.20
26479;DHT22;14163;-26.142;27.992;2023-09-30T20:00:36;28.50;35.40
26479;DHT22;14163;-26.142;27.992;2023-09-30T20:03:07;28.60;35.20
26479;DHT22;14163;-26.142;27.992;2023-09-30T20:05:37;28.50;34.90
26479;DHT22;14163;-26.142;27.992;2023-09-30T20:08:06;28.50;34.90
26479;DHT22;14163;-26.142;27.992;2023-09-30T20:10:35;28.60;35.20
26479;DHT22;14163;-26.142;27.992;2023-09-30T20:13:05;28.60;34.60
26479;DHT22;14163;-26.142;27.992;2023-09-30T20:15:35;28.40;34.50
26479;DHT22;14163;-26.142;27.992;2023-09-30T20:18:08;28.50;34.50
26479;DHT22;14163;-26.142;27.992;2023-09-30T20:20:38;28.50;34.50
26479;DHT22;14163;-26.142;27.992;2023-09-30T20:23:07;28.60;34.50
26479;DHT22;14163;-26.142;27.992;2023-09-30T20:25:37;28.60;34.40
26479;DHT22;14163;-26.142;27.992;2023-09-30T20:28:06;28.40;34.40
26479;DHT22;14163;-26.142;27.992;2023-09-30T20:30:36;28.30;34.40
26479;DHT22;14163;-26.142;27.992;2023-09-30T20:33:07;28.30;34.30
26479;DHT22;14163;-26.142;27.992;2023-09-30T20:35:36;28.20;34.10
26479;DHT22;14163;-26.142;27.992;2023-09-30T20:38:05;28.30;34.20
26479;DHT22;14163;-26.142;27.992;2023-09-30T20:40:34;28.20;34.30
26479;DHT22;14163;-26.142;27.992;2023-09-30T20:43:03;28.20;34.10
26479;DHT22;14163;-26.142;27.992;2023-09-30T20:45:33;28.00;34.10
26479;DHT22;14163;-26.142;27.992;2023-09-30T20:48:03;28.00;34.20
26479;DHT22;14163;-26.142;27.992;2023-09-30T20:50:34;28.00;34.20
26479;DHT22;14163;-26.142;27.992;2023-09-30T20:53:03;28.00;34.20
26479;DHT22;14163;-26.142;27.992;2023-09-30T20:55:35;28.00;34.50
26479;DHT22;14163;-26.142;27.992;2023-09-30T20:58:04;28.00;34.40
26479;DHT22;14163;-26.142;27.992;2023-09-30T21:00:33;28.00;34.40
26479;DHT22;14163;-26.142;27.992;2023-09-30T21:03:02;28.00;34.40
26479;DHT22;14163;-26.142;27.992;2023-09-30T21:05:37;28.00;34.30
26479;DHT22;14163;-26.142;27.992;2023-09-30T21:08:06;27.90;34.40
26479;DHT22;14163;-26.142;27.992;2023-09-30T21:10:36;27.80;34.40
26479;DHT22;14163;-26.142;27.992;2023-09-30T21:13:05;27.70;34.50
26479;DHT22;14163;-26.142;27.992;2023-09-30T21:15:35;27.60;34.60
26479;DHT22;14163;-26.142;27.992;2023-09-30T21:18:04;27.60;34.40
26479;DHT22;14163;-26.142;27.992;2023-09-30T21:20:33;27.60;34.50
26479;DHT22;14163;-26.142;27.992;2023-09-30T21:23:04;27.60;34.20
26479;DHT22;14163;-26.142;27.992;2023-09-30T21:25:34;27.50;34.20
26479;DHT22;14163;-26.142;27.992;2023-09-30T21:28:04;27.50;34.40
26479;DHT22;14163;-26.142;27.992;2023-09-30T21:30:35;27.50;34.40
26479;DHT22;14163;-26.142;27.992;2023-09-30T21:33:04;27.50;34.60
26479;DHT22;14163;-26.142;27.992;2023-09-30T21:35:34;27.40;34.60
26479;DHT22;14163;-26.142;27.992;2023-09-30T21:38:05;27.40;34.60
26479;DHT22;14163;-26.142;27.992;2023-09-30T21:40:34;27.20;34.50
26479;DHT22;14163;-26.142;27.992;2023-09-30T21:43:04;27.20;34.80
26479;DHT22;14163;-26.142;27.992;2023-09-30T21:45:34;27.00;34.90
26479;DHT22;14163;-26.142;27.992;2023-09-30T21:48:03;27.00;34.80
26479;DHT22;14163;-26.142;27.992;2023-09-30T21:50:33;27.00;35.00
26479;DHT22;14163;-26.142;27.992;2023-09-30T21:53:04;26.80;34.90
26479;DHT22;14163;-26.142;27.992;2023-09-30T21:55:35;26.80;35.10
26479;DHT22;14163;-26.142;27.992;2023-09-30T21:58:04;26.70;35.20
26479;DHT22;14163;-26.142;27.992;2023-09-30T22:00:33;26.70;35.40
26479;DHT22;14163;-26.142;27.992;2023-09-30T22:03:06;26.60;35.40
26479;DHT22;14163;-26.142;27.992;2023-09-30T22:05:38;26.60;35.50
26479;DHT22;14163;-26.142;27.992;2023-09-30T22:08:10;26.60;35.40
26479;DHT22;14163;-26.142;27.992;2023-09-30T22:10:40;26.50;35.50
26479;DHT22;14163;-26.142;27.992;2023-09-30T22:13:09;26.50;35.30
26479;DHT22;14163;-26.142;27.992;2023-09-30T22:15:40;26.40;35.50
26479;DHT22;14163;-26.142;27.992;2023-09-30T22:18:09;26.30;35.40
26479;DHT22;14163;-26.142;27.992;2023-09-30T22:20:38;26.30;35.60
26479;DHT22;14163;-26.142;27.992;2023-09-30T22:23:09;26.30;35.60
26479;DHT22;14163;-26.142;27.992;2023-09-30T22:25:38;26.20;35.40
26479;DHT22;14163;-26.142;27.992;2023-09-30T22:28:08;26.20;35.60
26479;DHT22;14163;-26.142;27.992;2023-09-30T22:30:38;26.00;35.40
26479;DHT22;14163;-26.142;27.992;2023-09-30T22:33:07;25.90;35.60
26479;DHT22;14163;-26.142;27.992;2023-09-30T22:35:36;25.90;35.60
26479;DHT22;14163;-26.142;27.992;2023-09-30T22:38:09;25.80;35.80
26479;DHT22;14163;-26.142;27.992;2023-09-30T22:40:38;25.80;35.90
26479;DHT22;14163;-26.142;27.992;2023-09-30T22:43:08;25.70;35.90
26479;DHT22;14163;-26.142;27.992;2023-09-30T22:45:37;25.70;36.00
26479;DHT22;14163;-26.142;27.992;2023-09-30T22:48:09;25.60;36.00
26479;DHT22;14163;-26.142;27.992;2023-09-30T22:50:38;25.60;36.10
26479;DHT22;14163;-26.142;27.992;2023-09-30T22:53:08;25.50;36.10
26479;DHT22;14163;-26.142;27.992;2023-09-30T22:55:37;25.40;36.20
26479;DHT22;14163;-26.142;27.992;2023-09-30T22:58:06;25.30;36.30
26479;DHT22;14163;-26.142;27.992;2023-09-30T23:00:35;25.30;36.30
26479;DHT22;14163;-26.142;27.992;2023-09-30T23:03:05;25.20;36.30
26479;DHT22;14163;-26.142;27.992;2023-09-30T23:05:34;25.10;36.00
26479;DHT22;14163;-26.142;27.992;2023-09-30T23:08:04;25.10;35.80
26479;DHT22;14163;-26.142;27.992;2023-09-30T23:10:35;25.10;35.60
26479;DHT22;14163;-26.142;27.992;2023-09-30T23:13:04;25.10;35.40
26479;DHT22;14163;-26.142;27.992;2023-09-30T23:15:33;25.00;35.30
26479;DHT22;14163;-26.142;27.992;2023-09-30T23:18:03;25.00;35.20
26479;DHT22;14163;-26.142;27.992;2023-09-30T23:20:32;24.90;35.20
26479;DHT22;14163;-26.142;27.992;2023-09-30T23:23:01;24.90;35.30
26479;DHT22;14163;-26.142;27.992;2023-09-30T23:25:31;24.90;35.20
26479;DHT22;14163;-26.142;27.992;2023-09-30T23:28:03;24.80;34.80
26479;DHT22;14163;-26.142;27.992;2023-09-30T23:30:33;24.80;34.80
26479;DHT22;14163;-26.142;27.992;2023-09-30T23:33:03;24.80;34.80
26479;DHT22;14163;-26.142;27.992;2023-09-30T23:35:34;24.80;34.50
26479;DHT22;14163;-26.142;27.992;2023-09-30T23:38:04;24.80;34.30
26479;DHT22;14163;-26.142;27.992;2023-09-30T23:40:35;24.70;34.20
26479;DHT22;14163;-26.142;27.992;2023-09-30T23:43:07;24.50;34.10
26479;DHT22;14163;-26.142;27.992;2023-09-30T23:45:36;24.50;34.20
26479;DHT22;14163;-26.142;27.992;2023-09-30T23:48:07;24.50;34.40
26479;DHT22;14163;-26.142;27.992;2023-09-30T23:50:36;24.50;34.20
26479;DHT22;14163;-26.142;27.992;2023-09-30T23:53:07;24.50;34.20
26479;DHT22;14163;-26.142;27.992;2023-09-30T23:55:36;24.30;33.90
26479;DHT22;14163;-26.142;27.992;2023-09-30T23:58:08;24.30;34.10
